首页
METAR-TAF:

METAR-TAF

机场 :

金浦国际机场

汉城 / 金浦機場, 大韩民国

纬度: 37-33N, 经度: 126-48E, 海拔: 18米

当前天气观测

该预报发布于23分钟前的11:00 UTC
风速9节,风向西转西北
温度 2°C
湿度 60%
气压 1021 hPa
能见度10公里或以上
少量云层高于3000英尺

METAR: RKSS 111100Z 29009KT 9999 FEW030 02/M05 Q1021 NOSIG

时间: 20:23 (11:23 UTC)

预报

该预报发布于6小时和23分钟前的05:00 UTC
预报有效从11日的 06点(UTC)到 12日的 12点(UTC)
风速15节,风向西转西北,有时为25节阵风
能見度: 6000
散云层高于3000英尺
成为
从 11日的 11点(UTC)到 11日的 12点(UTC)
风速8节,风向西转西北
短暂存在
从 11日的 13点(UTC)到 11日的 15点(UTC)
多云层高于3000英尺

TAF: RKSS 110500Z 1106/1212 30015G25KT 6000 SCT030 TNM06/1122Z TX04/1205Z BECMG 1111/1112 30008KT TEMPO 1113/1115 BKN030

超过4000个机场的气象观测和天气预报(METAR&TAF报告)。

可查询的气象台以黄色和红色小点在地图上表示。

将鼠标移到小点上方,可查看气象台名称。

然后点击查看天气观测和预报。

如需切换地图:点击带黑十字的绿色按钮放大地图;点击带横线的绿色按钮缩小地图;或者点击绿色箭头查看邻近地区的地图。


METAR-TAF: